createdAt,value
2023-05-07T00:01:20.296Z,16.40
2023-05-07T00:03:47.271Z,16.40
2023-05-07T00:06:14.333Z,16.50
2023-05-07T00:08:41.002Z,16.40
2023-05-07T00:11:07.623Z,16.30
2023-05-07T00:13:36.487Z,16.30
2023-05-07T00:16:04.090Z,16.30
2023-05-07T00:18:31.015Z,16.30
2023-05-07T00:20:57.685Z,16.30
2023-05-07T00:23:24.359Z,16.20
2023-05-07T00:25:50.978Z,16.20
2023-05-07T00:28:17.664Z,16.30
2023-05-07T00:30:44.245Z,16.40
2023-05-07T00:33:10.970Z,16.30
2023-05-07T00:35:37.532Z,16.30
2023-05-07T00:38:04.079Z,16.30
2023-05-07T00:40:30.698Z,16.10
2023-05-07T00:42:59.284Z,16.20
2023-05-07T00:45:29.710Z,16.20
2023-05-07T00:47:58.527Z,16.10
2023-05-07T00:50:25.482Z,16.10
2023-05-07T00:52:51.990Z,16.10
2023-05-07T00:55:18.918Z,16.10
2023-05-07T00:57:46.177Z,16.00
2023-05-07T01:00:14.024Z,15.90
2023-05-07T01:02:41.322Z,15.80
2023-05-07T01:05:10.633Z,15.70
2023-05-07T01:07:39.023Z,15.80
2023-05-07T01:10:07.325Z,15.80
2023-05-07T01:12:35.170Z,15.80
2023-05-07T01:15:02.912Z,15.70
2023-05-07T01:17:29.596Z,15.70
2023-05-07T01:19:56.532Z,15.70
2023-05-07T01:22:32.145Z,15.70
2023-05-07T01:25:00.535Z,15.60
2023-05-07T01:27:28.984Z,15.60
2023-05-07T01:29:56.585Z,15.70
2023-05-07T01:32:41.779Z,15.70
2023-05-07T01:35:12.572Z,15.50
2023-05-07T01:37:41.006Z,15.50
2023-05-07T01:40:09.102Z,15.40
2023-05-07T01:42:36.788Z,15.40
2023-05-07T01:45:04.483Z,15.40
2023-05-07T01:47:31.890Z,15.40
2023-05-07T01:49:59.278Z,15.20
2023-05-07T01:52:26.130Z,15.10
2023-05-07T01:54:52.707Z,15.10
2023-05-07T01:57:19.293Z,15.10
2023-05-07T01:59:46.104Z,15.10
2023-05-07T02:02:12.669Z,15.10
2023-05-07T02:04:42.089Z,15.00
2023-05-07T02:07:08.972Z,15.00
2023-05-07T02:09:35.835Z,14.90
2023-05-07T02:12:03.109Z,14.90
2023-05-07T02:14:29.753Z,15.00
2023-05-07T02:16:56.883Z,15.00
2023-05-07T02:19:23.961Z,14.90
2023-05-07T02:21:51.391Z,14.90
2023-05-07T02:24:18.053Z,14.90
2023-05-07T02:26:44.750Z,14.70
2023-05-07T02:29:11.465Z,14.60
2023-05-07T02:31:39.192Z,14.50
2023-05-07T02:34:05.803Z,14.60
2023-05-07T02:36:32.342Z,14.70
2023-05-07T02:39:07.128Z,14.60
2023-05-07T02:41:33.716Z,14.70
2023-05-07T02:44:00.399Z,14.60
2023-05-07T02:46:27.404Z,14.40
2023-05-07T02:49:00.676Z,14.20
2023-05-07T02:51:28.067Z,14.20
2023-05-07T02:53:57.255Z,14.10
2023-05-07T02:56:23.928Z,14.10
2023-05-07T02:58:50.571Z,14.10
2023-05-07T03:01:18.544Z,14.10
2023-05-07T03:03:55.209Z,14.10
2023-05-07T03:06:22.531Z,14.10
2023-05-07T03:08:49.148Z,14.10
2023-05-07T03:11:15.945Z,14.10
2023-05-07T03:13:42.636Z,14.10
2023-05-07T03:16:09.357Z,14.10
2023-05-07T03:18:36.036Z,14.20
2023-05-07T03:21:02.856Z,14.30
2023-05-07T03:23:29.577Z,14.30
2023-05-07T03:25:56.232Z,14.10
2023-05-07T03:28:23.054Z,13.90
2023-05-07T03:30:57.535Z,13.90
2023-05-07T03:33:24.205Z,13.90
2023-05-07T03:35:50.816Z,14.00
2023-05-07T03:38:21.492Z,14.10
2023-05-07T03:40:48.025Z,14.00
2023-05-07T03:43:15.365Z,13.90
2023-05-07T03:45:46.585Z,13.90
2023-05-07T03:48:17.670Z,14.00
2023-05-07T03:50:45.521Z,14.00
2023-05-07T03:53:12.237Z,13.90
2023-05-07T03:55:40.146Z,13.80
2023-05-07T03:58:06.971Z,13.80
2023-05-07T04:00:38.083Z,13.60
2023-05-07T04:03:12.089Z,13.60
2023-05-07T04:05:38.641Z,13.50
2023-05-07T04:08:06.385Z,13.60
2023-05-07T04:10:39.107Z,13.80
2023-05-07T04:13:09.481Z,13.80
2023-05-07T04:15:37.466Z,13.90
2023-05-07T04:18:07.277Z,13.80
2023-05-07T04:20:37.347Z,13.80
2023-05-07T04:23:06.086Z,13.70
2023-05-07T04:25:33.053Z,13.80
2023-05-07T04:28:07.929Z,13.70
2023-05-07T04:30:34.811Z,13.80
2023-05-07T04:33:03.782Z,13.80
2023-05-07T04:35:32.394Z,13.80
2023-05-07T04:37:59.705Z,13.80
2023-05-07T04:40:26.690Z,14.00
2023-05-07T04:42:54.099Z,14.10
2023-05-07T04:45:22.106Z,14.20
2023-05-07T04:47:48.720Z,14.20
2023-05-07T04:50:15.311Z,14.10
2023-05-07T04:52:43.404Z,14.20
2023-05-07T04:55:10.299Z,14.40
2023-05-07T04:57:41.610Z,14.60
2023-05-07T05:00:10.257Z,14.70
2023-05-07T05:02:39.003Z,14.80
2023-05-07T05:05:06.395Z,15.00
2023-05-07T05:07:33.142Z,15.10
2023-05-07T05:10:00.439Z,15.20
2023-05-07T05:12:27.473Z,15.30
2023-05-07T05:14:54.442Z,15.30
2023-05-07T05:17:21.946Z,15.30
2023-05-07T05:19:48.514Z,15.10
2023-05-07T05:22:15.150Z,14.90
2023-05-07T05:24:41.631Z,15.00
2023-05-07T05:27:08.457Z,15.00
2023-05-07T05:29:35.386Z,15.00
2023-05-07T05:32:02.205Z,15.00
2023-05-07T05:34:30.948Z,15.00
2023-05-07T05:37:00.043Z,15.10
2023-05-07T05:39:26.594Z,15.20
2023-05-07T05:41:53.206Z,15.20
2023-05-07T05:44:20.738Z,15.20
2023-05-07T05:46:47.402Z,15.20
2023-05-07T05:49:14.453Z,15.20
2023-05-07T05:51:41.188Z,15.40
2023-05-07T05:54:08.292Z,15.50
2023-05-07T05:56:35.042Z,15.60
2023-05-07T05:59:02.244Z,15.80
2023-05-07T06:01:29.452Z,15.80
2023-05-07T06:03:58.642Z,15.90
2023-05-07T06:06:25.210Z,16.10
2023-05-07T06:08:52.435Z,16.00
2023-05-07T06:11:24.947Z,16.00
2023-05-07T06:13:51.490Z,16.00
2023-05-07T06:16:18.081Z,16.00
2023-05-07T06:18:47.267Z,16.30
2023-05-07T06:21:15.589Z,16.40
2023-05-07T06:23:42.212Z,16.60
2023-05-07T06:26:09.053Z,16.50
2023-05-07T06:28:40.727Z,16.50
2023-05-07T06:31:17.947Z,16.40
2023-05-07T06:33:50.888Z,16.50
2023-05-07T06:36:17.650Z,16.70
2023-05-07T06:38:45.368Z,16.90
2023-05-07T06:41:11.954Z,17.00
2023-05-07T06:43:39.399Z,17.10
2023-05-07T06:46:30.258Z,17.30
2023-05-07T06:48:57.772Z,17.30
2023-05-07T06:51:24.909Z,17.10
2023-05-07T06:53:51.460Z,17.20
2023-05-07T06:56:18.133Z,17.50
2023-05-07T06:58:44.708Z,17.60
2023-05-07T07:01:11.507Z,17.70
2023-05-07T07:03:38.274Z,17.80
2023-05-07T07:06:05.590Z,17.90
2023-05-07T07:08:32.614Z,18.00
2023-05-07T07:10:59.294Z,18.10
2023-05-07T07:13:26.286Z,18.20
2023-05-07T07:15:53.760Z,18.10
2023-05-07T07:18:21.213Z,18.20
2023-05-07T07:20:48.966Z,18.30
2023-05-07T07:23:15.856Z,18.30
2023-05-07T07:25:42.419Z,18.40
2023-05-07T07:28:09.398Z,18.40
2023-05-07T07:30:38.738Z,18.40
2023-05-07T07:33:06.179Z,18.50
2023-05-07T07:35:36.395Z,18.70
2023-05-07T07:38:05.111Z,18.90
2023-05-07T07:40:31.689Z,18.90
2023-05-07T07:42:58.454Z,19.10
2023-05-07T07:45:25.326Z,19.30
2023-05-07T07:47:52.587Z,19.30
2023-05-07T07:50:28.728Z,19.50
2023-05-07T07:52:59.022Z,19.40
2023-05-07T07:55:25.771Z,19.40
2023-05-07T07:57:54.163Z,19.40
2023-05-07T08:00:22.804Z,19.40
2023-05-07T08:02:53.505Z,19.50
2023-05-07T08:05:26.030Z,19.60
2023-05-07T08:07:54.244Z,19.60
2023-05-07T08:10:25.960Z,19.60
2023-05-07T08:12:58.733Z,19.70
2023-05-07T08:15:25.430Z,19.80
2023-05-07T08:17:52.302Z,19.80
2023-05-07T08:20:19.340Z,19.80
2023-05-07T08:22:46.039Z,19.90
2023-05-07T08:25:12.850Z,20.00
2023-05-07T08:27:39.513Z,20.10
2023-05-07T08:30:06.827Z,20.10
2023-05-07T08:32:33.451Z,20.20
2023-05-07T08:35:01.266Z,20.20
2023-05-07T08:37:28.098Z,20.30
2023-05-07T08:39:55.251Z,20.30
2023-05-07T08:42:26.078Z,20.40
2023-05-07T08:44:56.671Z,20.60
2023-05-07T08:47:28.330Z,20.90
2023-05-07T08:49:56.411Z,21.10
2023-05-07T08:52:23.706Z,21.40
2023-05-07T08:54:50.691Z,21.50
2023-05-07T08:57:17.911Z,21.50
2023-05-07T08:59:44.449Z,21.60
2023-05-07T09:02:12.513Z,21.80
2023-05-07T09:04:40.372Z,21.90
2023-05-07T09:07:06.944Z,22.00
2023-05-07T09:09:38.248Z,22.30
2023-05-07T09:12:05.590Z,22.50
2023-05-07T09:14:34.478Z,22.50
2023-05-07T09:17:02.501Z,22.80
2023-05-07T09:19:29.260Z,22.90
2023-05-07T09:22:00.909Z,22.90
2023-05-07T09:24:29.565Z,22.70
2023-05-07T09:26:58.803Z,22.70
2023-05-07T09:29:26.051Z,22.80
2023-05-07T09:31:52.604Z,22.70
2023-05-07T09:34:19.226Z,22.70
2023-05-07T09:36:47.898Z,23.00
2023-05-07T09:39:15.369Z,23.20
2023-05-07T09:41:46.265Z,23.20
2023-05-07T09:44:22.956Z,23.40
2023-05-07T09:46:56.077Z,23.50
2023-05-07T09:49:35.413Z,23.60
2023-05-07T09:52:11.314Z,23.80
2023-05-07T09:54:44.483Z,23.80
2023-05-07T09:57:12.959Z,23.90
2023-05-07T09:59:43.782Z,24.10
2023-05-07T10:02:15.642Z,24.30
2023-05-07T10:04:48.690Z,24.40
2023-05-07T10:07:18.944Z,24.40
2023-05-07T10:09:49.178Z,24.60
2023-05-07T10:12:25.030Z,24.60
2023-05-07T10:14:53.900Z,24.80
2023-05-07T10:17:21.716Z,24.80
2023-05-07T10:19:50.666Z,25.00
2023-05-07T10:22:19.386Z,25.00
2023-05-07T10:24:49.847Z,25.00
2023-05-07T10:27:19.481Z,25.10
2023-05-07T10:30:04.318Z,25.10
2023-05-07T10:32:36.495Z,25.20
2023-05-07T10:35:07.640Z,25.30
2023-05-07T10:37:35.064Z,25.40
2023-05-07T10:40:02.384Z,25.60
2023-05-07T10:42:31.193Z,25.60
2023-05-07T10:44:58.802Z,25.60
2023-05-07T10:47:29.940Z,25.80
2023-05-07T10:50:05.966Z,25.60
2023-05-07T10:52:35.827Z,25.50
2023-05-07T10:55:22.498Z,25.30
2023-05-07T10:58:32.166Z,25.20
2023-05-07T11:02:00.158Z,25.10
2023-05-07T11:04:36.355Z,25.00
2023-05-07T11:07:25.662Z,24.80
2023-05-07T11:09:54.735Z,24.60
2023-05-07T11:12:39.238Z,24.50
2023-05-07T11:15:18.022Z,24.50
2023-05-07T11:17:56.172Z,24.30
2023-05-07T11:20:46.047Z,24.30
2023-05-07T11:23:33.830Z,24.40
2023-05-07T11:26:11.380Z,24.40
2023-05-07T11:28:41.104Z,24.40
2023-05-07T11:31:08.554Z,24.30
2023-05-07T11:33:36.994Z,24.20
2023-05-07T11:36:06.658Z,24.10
2023-05-07T11:38:38.842Z,24.00
2023-05-07T11:41:06.206Z,23.90
2023-05-07T11:43:34.003Z,23.70
2023-05-07T11:46:12.637Z,23.60
2023-05-07T11:48:39.935Z,23.40
2023-05-07T11:51:07.387Z,23.10
2023-05-07T11:53:38.755Z,22.60
2023-05-07T11:56:16.330Z,22.30
2023-05-07T11:58:44.330Z,22.10
2023-05-07T12:01:13.200Z,21.90
2023-05-07T12:03:44.173Z,21.80
2023-05-07T12:06:12.701Z,21.80
2023-05-07T12:08:43.286Z,21.70
2023-05-07T12:11:15.415Z,21.80
2023-05-07T12:13:42.480Z,21.80
2023-05-07T12:16:09.394Z,21.80
2023-05-07T12:18:37.418Z,21.90
2023-05-07T12:21:06.503Z,21.90
2023-05-07T12:23:34.191Z,21.90
2023-05-07T12:26:00.928Z,22.10
2023-05-07T12:28:28.620Z,22.10
2023-05-07T12:30:55.411Z,22.00
2023-05-07T12:33:27.032Z,22.00
2023-05-07T12:35:56.229Z,21.90
2023-05-07T12:38:23.190Z,21.90
2023-05-07T12:40:52.306Z,21.90
2023-05-07T12:43:26.692Z,21.80
2023-05-07T12:45:56.136Z,21.70
2023-05-07T12:48:24.253Z,21.70
2023-05-07T12:50:54.835Z,21.70
2023-05-07T12:53:23.259Z,21.70
2023-05-07T12:55:55.562Z,21.60
2023-05-07T12:58:34.276Z,21.50
2023-05-07T13:01:04.816Z,21.20
2023-05-07T13:03:36.245Z,20.80
2023-05-07T13:06:10.939Z,20.60
2023-05-07T13:08:41.364Z,20.60
2023-05-07T13:11:10.071Z,20.40
2023-05-07T13:13:38.257Z,20.20
2023-05-07T13:16:06.358Z,20.00
2023-05-07T13:18:34.076Z,19.90
2023-05-07T13:21:01.767Z,19.90
2023-05-07T13:23:29.284Z,20.00
2023-05-07T13:25:56.849Z,20.00
2023-05-07T13:28:24.783Z,19.90
2023-05-07T13:30:53.250Z,19.90
2023-05-07T13:33:20.047Z,19.90
2023-05-07T13:35:46.623Z,20.00
2023-05-07T13:38:13.089Z,20.00
2023-05-07T13:40:39.632Z,19.90
2023-05-07T13:43:06.736Z,19.70
2023-05-07T13:45:33.355Z,19.50
2023-05-07T13:48:00.088Z,19.20
2023-05-07T13:50:28.087Z,19.10
2023-05-07T13:52:54.673Z,18.90
2023-05-07T13:55:22.256Z,18.80
2023-05-07T13:57:48.822Z,18.80
2023-05-07T14:00:17.246Z,18.80
2023-05-07T14:02:43.946Z,18.80
2023-05-07T14:05:11.220Z,18.80
2023-05-07T14:07:38.223Z,18.80
2023-05-07T14:10:05.417Z,18.60
2023-05-07T14:12:32.869Z,18.60
2023-05-07T14:14:59.555Z,18.70
2023-05-07T14:17:27.850Z,18.70
2023-05-07T14:19:55.445Z,18.70
2023-05-07T14:22:23.474Z,18.70
2023-05-07T14:25:03.259Z,18.60
2023-05-07T14:27:32.845Z,18.60
2023-05-07T14:29:59.432Z,18.50
2023-05-07T14:32:25.996Z,18.50
2023-05-07T14:34:52.633Z,18.50
2023-05-07T14:37:20.765Z,18.50
2023-05-07T14:39:49.779Z,18.40
2023-05-07T14:42:16.761Z,18.30
2023-05-07T14:44:43.248Z,18.20
2023-05-07T14:47:09.939Z,18.20
2023-05-07T14:49:36.494Z,18.20
2023-05-07T14:52:03.583Z,18.20
2023-05-07T14:54:30.083Z,18.30
2023-05-07T14:56:56.869Z,18.30
2023-05-07T14:59:25.798Z,18.40
2023-05-07T15:01:52.612Z,18.40
2023-05-07T15:04:19.396Z,18.50
2023-05-07T15:06:47.072Z,18.50
2023-05-07T15:09:13.593Z,18.40
2023-05-07T15:11:40.200Z,18.40
2023-05-07T15:14:07.396Z,18.40
2023-05-07T15:16:34.974Z,18.50
2023-05-07T15:19:01.516Z,18.50
2023-05-07T15:21:28.076Z,18.40
2023-05-07T15:23:54.629Z,18.40
2023-05-07T15:26:21.526Z,18.50
2023-05-07T15:28:48.132Z,18.60
2023-05-07T15:31:14.779Z,18.70
2023-05-07T15:33:41.817Z,18.80
2023-05-07T15:36:08.502Z,18.70
2023-05-07T15:38:35.539Z,18.80
2023-05-07T15:41:02.126Z,18.90
2023-05-07T15:43:28.631Z,19.00
2023-05-07T15:45:55.618Z,19.10
2023-05-07T15:48:22.341Z,19.20
2023-05-07T15:50:48.864Z,19.30
2023-05-07T15:53:15.553Z,19.30
2023-05-07T15:55:44.317Z,19.30
2023-05-07T15:58:10.884Z,19.10
2023-05-07T16:00:40.720Z,18.80
2023-05-07T16:03:08.197Z,18.70
2023-05-07T16:05:34.781Z,18.90
2023-05-07T16:08:01.345Z,18.80
2023-05-07T16:10:27.905Z,18.90
2023-05-07T16:12:54.567Z,19.10
2023-05-07T16:15:21.154Z,19.20
2023-05-07T16:17:49.489Z,19.10
2023-05-07T16:20:19.689Z,19.00
2023-05-07T16:22:46.578Z,19.00
2023-05-07T16:25:14.794Z,19.20
2023-05-07T16:27:41.444Z,19.40
2023-05-07T16:30:08.813Z,19.70
2023-05-07T16:32:36.224Z,20.10
2023-05-07T16:35:03.649Z,20.40
2023-05-07T16:37:30.194Z,20.30
2023-05-07T16:39:56.786Z,20.30
2023-05-07T16:42:23.277Z,20.50
2023-05-07T16:44:49.729Z,20.50
2023-05-07T16:47:16.217Z,20.40
2023-05-07T16:49:42.854Z,20.50
2023-05-07T16:52:09.586Z,20.60
2023-05-07T16:54:37.141Z,20.70
2023-05-07T16:57:03.893Z,20.60
2023-05-07T16:59:33.279Z,20.40
2023-05-07T17:01:59.815Z,20.20
2023-05-07T17:04:26.932Z,20.10
2023-05-07T17:06:53.613Z,19.90
2023-05-07T17:09:20.176Z,19.60
2023-05-07T17:11:46.651Z,19.60
2023-05-07T17:14:13.136Z,19.60
2023-05-07T17:16:39.823Z,19.60
2023-05-07T17:19:06.427Z,19.60
2023-05-07T17:21:32.993Z,19.50
2023-05-07T17:23:59.600Z,19.50
2023-05-07T17:26:26.097Z,19.50
2023-05-07T17:28:52.664Z,19.40
2023-05-07T17:31:19.187Z,19.30
2023-05-07T17:33:45.708Z,19.20
2023-05-07T17:36:12.877Z,19.10
2023-05-07T17:38:39.572Z,19.00
2023-05-07T17:41:06.170Z,18.90
2023-05-07T17:43:32.713Z,18.90
2023-05-07T17:45:59.210Z,18.90
2023-05-07T17:48:25.850Z,18.90
2023-05-07T17:50:52.338Z,18.80
2023-05-07T17:53:19.283Z,18.80
2023-05-07T17:55:45.926Z,18.70
2023-05-07T17:58:12.578Z,18.60
2023-05-07T18:00:39.571Z,18.60
2023-05-07T18:03:06.760Z,18.50
2023-05-07T18:05:36.283Z,18.50
2023-05-07T18:08:02.945Z,18.50
2023-05-07T18:10:29.441Z,18.40
2023-05-07T18:12:56.250Z,18.40
2023-05-07T18:15:22.802Z,18.30
2023-05-07T18:17:49.432Z,18.30
2023-05-07T18:20:16.071Z,18.30
2023-05-07T18:22:42.709Z,18.30
2023-05-07T18:25:09.434Z,18.30
2023-05-07T18:27:35.995Z,18.20
2023-05-07T18:30:02.942Z,18.00
2023-05-07T18:32:29.551Z,17.90
2023-05-07T18:34:56.146Z,17.90
2023-05-07T18:37:26.611Z,17.90
2023-05-07T18:39:53.378Z,18.00
2023-05-07T18:42:20.219Z,18.00
2023-05-07T18:44:46.756Z,18.00
2023-05-07T18:47:13.909Z,18.10
2023-05-07T18:49:40.529Z,18.10
2023-05-07T18:52:07.108Z,18.30
2023-05-07T18:54:33.640Z,18.40
2023-05-07T18:57:00.203Z,18.20
2023-05-07T18:59:26.760Z,18.10
2023-05-07T19:01:53.384Z,18.10
2023-05-07T19:04:20.286Z,18.00
2023-05-07T19:06:46.939Z,17.90
2023-05-07T19:09:13.444Z,17.90
2023-05-07T19:11:39.931Z,17.80
2023-05-07T19:14:06.641Z,17.70
2023-05-07T19:16:33.378Z,17.60
2023-05-07T19:18:59.974Z,17.60
2023-05-07T19:21:28.494Z,17.60
2023-05-07T19:23:57.337Z,17.60
2023-05-07T19:26:24.217Z,17.60
2023-05-07T19:29:01.652Z,17.60
2023-05-07T19:31:38.445Z,17.50
2023-05-07T19:34:05.223Z,17.60
2023-05-07T19:36:34.285Z,17.60
2023-05-07T19:39:00.894Z,17.60
2023-05-07T19:41:27.456Z,17.60
2023-05-07T19:43:53.935Z,17.70
2023-05-07T19:46:20.583Z,17.70
2023-05-07T19:48:47.199Z,17.70
2023-05-07T19:51:13.722Z,17.70
2023-05-07T19:53:40.420Z,17.70
2023-05-07T19:56:08.331Z,17.80
2023-05-07T19:58:35.961Z,17.80
2023-05-07T20:01:03.520Z,17.80
2023-05-07T20:03:31.909Z,17.70
2023-05-07T20:05:59.007Z,17.70
2023-05-07T20:08:26.932Z,17.70
2023-05-07T20:10:53.872Z,17.60
2023-05-07T20:13:20.523Z,17.50
2023-05-07T20:15:47.082Z,17.50
2023-05-07T20:18:15.219Z,17.50
2023-05-07T20:20:42.342Z,17.40
2023-05-07T20:23:08.900Z,17.30
2023-05-07T20:25:35.348Z,17.30
2023-05-07T20:28:01.953Z,17.30
2023-05-07T20:30:28.464Z,17.30
2023-05-07T20:32:55.017Z,17.20
2023-05-07T20:35:21.601Z,17.10
2023-05-07T20:37:48.162Z,17.00
2023-05-07T20:40:15.062Z,16.90
2023-05-07T20:42:42.721Z,16.90
2023-05-07T20:45:10.304Z,16.90
2023-05-07T20:47:37.051Z,16.90
2023-05-07T20:50:03.865Z,17.00
2023-05-07T20:52:30.506Z,17.00
2023-05-07T20:54:57.009Z,17.00
2023-05-07T20:57:23.576Z,16.90
2023-05-07T20:59:50.254Z,16.80
2023-05-07T21:02:17.075Z,16.80
2023-05-07T21:04:43.937Z,16.70
2023-05-07T21:07:10.670Z,16.80
2023-05-07T21:09:37.212Z,16.80
2023-05-07T21:12:04.087Z,16.80
2023-05-07T21:14:30.810Z,16.80
2023-05-07T21:16:57.450Z,16.80
2023-05-07T21:19:24.141Z,16.80
2023-05-07T21:21:50.674Z,16.80
2023-05-07T21:24:17.245Z,16.90
2023-05-07T21:26:43.798Z,16.90
2023-05-07T21:29:10.484Z,16.80
2023-05-07T21:31:37.053Z,16.80
2023-05-07T21:34:03.550Z,16.80
2023-05-07T21:36:30.110Z,16.80
2023-05-07T21:38:56.623Z,16.70
2023-05-07T21:41:23.132Z,16.70
2023-05-07T21:43:49.799Z,16.60
2023-05-07T21:46:16.364Z,16.60
2023-05-07T21:48:43.005Z,16.50
2023-05-07T21:51:09.545Z,16.50
2023-05-07T21:53:36.376Z,16.50
2023-05-07T21:56:04.643Z,16.50
2023-05-07T21:58:31.259Z,16.50
2023-05-07T22:00:58.441Z,16.50
2023-05-07T22:03:25.117Z,16.50
2023-05-07T22:05:51.725Z,16.40
2023-05-07T22:08:18.580Z,16.30
2023-05-07T22:10:45.238Z,16.30
2023-05-07T22:13:12.119Z,16.30
2023-05-07T22:15:53.240Z,16.30
2023-05-07T22:18:23.216Z,16.40
2023-05-07T22:20:51.761Z,16.40
2023-05-07T22:23:18.394Z,16.30
2023-05-07T22:25:45.011Z,16.30
2023-05-07T22:28:11.516Z,16.30
2023-05-07T22:30:38.172Z,16.30
2023-05-07T22:33:04.741Z,16.30
2023-05-07T22:35:31.258Z,16.30
2023-05-07T22:37:58.440Z,16.30
2023-05-07T22:40:25.165Z,16.30
2023-05-07T22:42:51.664Z,16.40
2023-05-07T22:45:18.367Z,16.40
2023-05-07T22:47:44.945Z,16.40
2023-05-07T22:50:12.276Z,16.40
2023-05-07T22:52:39.022Z,16.30
2023-05-07T22:55:06.130Z,16.30
2023-05-07T22:57:32.629Z,16.30
2023-05-07T22:59:59.240Z,16.20
2023-05-07T23:02:28.864Z,16.10
2023-05-07T23:04:59.390Z,16.10
2023-05-07T23:07:25.974Z,16.20
2023-05-07T23:09:52.474Z,16.30
2023-05-07T23:12:19.392Z,16.30
2023-05-07T23:14:46.068Z,16.20
2023-05-07T23:17:12.653Z,16.20
2023-05-07T23:19:39.371Z,16.20
2023-05-07T23:22:06.277Z,16.20
2023-05-07T23:24:32.803Z,16.20
2023-05-07T23:26:59.303Z,16.20
2023-05-07T23:29:25.837Z,16.30
2023-05-07T23:31:52.430Z,16.20
2023-05-07T23:34:24.002Z,16.20
2023-05-07T23:36:51.346Z,16.20
2023-05-07T23:39:18.940Z,16.10
2023-05-07T23:41:45.601Z,16.10
2023-05-07T23:44:13.283Z,16.10
2023-05-07T23:46:39.955Z,16.00
2023-05-07T23:49:06.495Z,16.00
2023-05-07T23:51:33.103Z,16.10
2023-05-07T23:54:00.110Z,16.10
2023-05-07T23:56:26.708Z,16.10
2023-05-07T23:58:53.259Z,16.20
